createdAt,value
2022-09-28T00:00:20.461Z,4.93
2022-09-28T00:02:51.458Z,6.37
2022-09-28T00:05:22.620Z,7.40
2022-09-28T00:07:53.170Z,6.93
2022-09-28T00:10:24.033Z,3.57
2022-09-28T00:12:56.121Z,6.33
2022-09-28T00:15:26.701Z,6.27
2022-09-28T00:17:57.674Z,4.77
2022-09-28T00:20:28.582Z,5.17
2022-09-28T00:22:59.139Z,6.03
2022-09-28T00:25:30.199Z,6.03
2022-09-28T00:28:00.787Z,3.30
2022-09-28T00:30:31.377Z,2.93
2022-09-28T00:33:02.033Z,4.87
2022-09-28T00:35:32.629Z,7.53
2022-09-28T00:38:04.083Z,4.57
2022-09-28T00:40:34.806Z,7.83
2022-09-28T00:43:20.412Z,5.40
2022-09-28T00:45:55.443Z,4.30
2022-09-28T00:48:28.299Z,4.37
2022-09-28T00:51:01.203Z,4.47
2022-09-28T00:53:34.903Z,6.90
2022-09-28T00:56:09.317Z,2.87
2022-09-28T00:58:42.784Z,2.57
2022-09-28T01:01:13.825Z,5.20
2022-09-28T01:03:45.616Z,5.23
2022-09-28T01:06:19.312Z,3.70
2022-09-28T01:08:52.211Z,5.23
2022-09-28T01:11:22.849Z,6.40
2022-09-28T01:13:55.816Z,5.10
2022-09-28T01:16:30.737Z,2.47
2022-09-28T01:19:05.139Z,5.03
2022-09-28T01:21:39.385Z,3.20
2022-09-28T01:24:18.452Z,4.73
2022-09-28T01:29:58.857Z,4.23
2022-09-28T01:32:35.951Z,1.80
2022-09-28T01:35:09.953Z,4.53
2022-09-28T01:37:45.497Z,1.67
2022-09-28T01:40:18.510Z,3.37
2022-09-28T01:42:51.953Z,4.47
2022-09-28T01:45:25.440Z,4.47
2022-09-28T01:47:59.025Z,4.50
2022-09-28T01:50:32.726Z,4.80
2022-09-28T01:53:06.953Z,8.73
2022-09-28T01:55:40.468Z,5.33
2022-09-28T01:58:14.725Z,9.27
2022-09-28T02:00:49.241Z,4.80
2022-09-28T02:03:23.239Z,3.23
2022-09-28T02:05:57.180Z,5.37
2022-09-28T02:08:30.655Z,4.17
2022-09-28T02:11:04.431Z,5.60
2022-09-28T02:13:37.501Z,6.27
2022-09-28T02:16:13.175Z,2.43
2022-09-28T02:18:45.048Z,9.43
2022-09-28T02:21:18.945Z,1.90
2022-09-28T02:23:53.225Z,6.70
2022-09-28T02:26:26.945Z,4.37
2022-09-28T02:28:57.918Z,2.97
2022-09-28T02:31:29.630Z,4.23
2022-09-28T02:34:00.497Z,7.47
2022-09-28T02:36:31.217Z,2.70
2022-09-28T02:39:03.175Z,3.43
2022-09-28T02:41:41.049Z,4.03
2022-09-28T02:44:17.375Z,6.63
2022-09-28T02:46:51.632Z,2.77
2022-09-28T02:49:27.804Z,14.90
2022-09-28T02:52:08.138Z,5.63
2022-09-28T02:54:49.822Z,4.33
2022-09-28T02:57:27.323Z,1.90
2022-09-28T03:00:02.994Z,6.33
2022-09-28T03:02:37.572Z,3.80
2022-09-28T03:05:16.862Z,4.27
2022-09-28T03:07:53.427Z,6.00
2022-09-28T03:10:28.322Z,5.13
2022-09-28T03:13:00.340Z,4.33
2022-09-28T03:15:32.613Z,3.50
2022-09-28T03:18:03.724Z,4.70
2022-09-28T03:20:35.413Z,6.13
2022-09-28T03:23:23.988Z,3.33
2022-09-28T03:25:38.523Z,8.67
2022-09-28T03:28:28.311Z,2.67
2022-09-28T03:30:59.214Z,6.17
2022-09-28T03:33:29.742Z,6.80
2022-09-28T03:36:00.378Z,5.50
2022-09-28T03:38:30.936Z,6.40
2022-09-28T03:41:02.513Z,4.43
2022-09-28T03:43:33.208Z,2.90
2022-09-28T03:46:05.247Z,10.47
2022-09-28T03:48:37.761Z,4.80
2022-09-28T03:51:11.444Z,4.93
2022-09-28T03:53:42.379Z,5.00
2022-09-28T03:56:15.724Z,6.40
2022-09-28T03:58:46.312Z,5.40
2022-09-28T04:01:18.186Z,4.00
2022-09-28T04:03:51.592Z,6.77
2022-09-28T04:06:24.393Z,3.57
2022-09-28T04:08:55.017Z,3.43
2022-09-28T04:11:25.601Z,3.70
2022-09-28T04:13:56.335Z,7.30
2022-09-28T04:16:26.959Z,6.37
2022-09-28T04:18:58.914Z,5.50
2022-09-28T04:21:29.643Z,7.33
2022-09-28T04:24:00.160Z,1.90
2022-09-28T04:26:30.976Z,2.27
2022-09-28T04:29:17.205Z,7.03
2022-09-28T04:31:50.400Z,3.63
2022-09-28T04:34:22.733Z,3.50
2022-09-28T04:36:53.336Z,5.47
2022-09-28T04:39:24.327Z,6.50
2022-09-28T04:41:54.847Z,9.63
2022-09-28T04:44:25.580Z,4.30
2022-09-28T04:47:00.682Z,2.80
2022-09-28T04:49:30.073Z,3.23
2022-09-28T04:52:01.113Z,3.37
2022-09-28T04:54:31.650Z,2.63
2022-09-28T04:57:03.419Z,4.03
2022-09-28T04:59:34.216Z,4.50
2022-09-28T05:02:05.128Z,6.37
2022-09-28T05:04:35.852Z,10.57
2022-09-28T05:09:44.740Z,4.73
2022-09-28T05:12:15.279Z,6.07
2022-09-28T05:14:45.960Z,5.03
2022-09-28T05:17:16.756Z,6.00
2022-09-28T05:19:47.474Z,4.43
2022-09-28T05:22:18.148Z,3.80
2022-09-28T05:24:48.699Z,4.27
2022-09-28T05:27:19.224Z,7.33
2022-09-28T05:29:49.846Z,4.97
2022-09-28T05:32:20.367Z,3.80
2022-09-28T05:34:50.892Z,4.63
2022-09-28T05:37:21.479Z,8.07
2022-09-28T05:39:52.092Z,8.83
2022-09-28T05:42:22.799Z,7.53
2022-09-28T05:44:53.452Z,6.13
2022-09-28T05:47:25.976Z,8.77
2022-09-28T05:49:57.002Z,41.13
2022-09-28T05:52:27.634Z,8.87
2022-09-28T05:54:58.214Z,4.77
2022-09-28T05:57:28.869Z,3.83
2022-09-28T05:59:59.815Z,7.20
2022-09-28T06:02:30.431Z,6.70
2022-09-28T06:05:01.584Z,4.83
2022-09-28T06:07:32.215Z,5.80
2022-09-28T06:10:03.979Z,5.63
2022-09-28T06:12:36.322Z,4.00
2022-09-28T06:15:09.564Z,6.40
2022-09-28T06:17:40.548Z,4.57
2022-09-28T06:20:12.657Z,4.37
2022-09-28T06:22:43.337Z,5.77
2022-09-28T06:25:14.325Z,3.37
2022-09-28T06:27:45.115Z,4.30
2022-09-28T06:30:16.878Z,4.43
2022-09-28T06:32:47.726Z,5.10
2022-09-28T06:35:18.556Z,7.67
2022-09-28T06:37:49.559Z,9.10
2022-09-28T06:40:20.776Z,13.87
2022-09-28T06:42:59.161Z,11.90
2022-09-28T06:45:31.671Z,19.97
2022-09-28T06:48:03.713Z,37.37
2022-09-28T06:50:37.556Z,31.20
2022-09-28T06:53:10.386Z,7.87
2022-09-28T06:55:43.050Z,10.93
2022-09-28T06:58:15.741Z,7.83
2022-09-28T07:00:46.947Z,7.57
2022-09-28T07:03:19.160Z,7.10
2022-09-28T07:05:52.878Z,7.30
2022-09-28T07:08:26.070Z,7.43
2022-09-28T07:10:57.440Z,5.60
2022-09-28T07:13:48.764Z,11.23
2022-09-28T07:16:03.657Z,8.40
2022-09-28T07:18:34.396Z,10.60
2022-09-28T07:21:07.126Z,10.50
2022-09-28T07:23:49.325Z,7.67
2022-09-28T07:26:11.110Z,8.50
2022-09-28T07:28:43.041Z,10.53
2022-09-28T07:31:13.787Z,4.53
2022-09-28T07:33:44.426Z,11.23
2022-09-28T07:36:16.626Z,7.23
2022-09-28T07:38:47.243Z,8.03
2022-09-28T07:41:19.534Z,9.03
2022-09-28T07:43:50.868Z,9.10
2022-09-28T07:46:22.317Z,7.33
2022-09-28T07:48:53.996Z,4.90
2022-09-28T07:51:26.133Z,7.90
2022-09-28T07:53:56.879Z,10.13
2022-09-28T07:56:28.006Z,12.00
2022-09-28T07:58:58.791Z,12.63
2022-09-28T08:01:30.781Z,9.97
2022-09-28T08:04:01.717Z,7.90
2022-09-28T08:06:33.062Z,6.93
2022-09-28T08:09:03.782Z,9.67
2022-09-28T08:11:34.482Z,6.13
2022-09-28T08:14:05.164Z,5.50
2022-09-28T08:19:06.460Z,11.10
2022-09-28T08:21:46.505Z,11.67
2022-09-28T08:24:19.314Z,6.47
2022-09-28T08:26:50.286Z,7.80
2022-09-28T08:29:20.963Z,16.33
2022-09-28T08:31:51.557Z,14.30
2022-09-28T08:34:22.734Z,9.33
2022-09-28T08:36:53.377Z,12.73
2022-09-28T08:39:24.130Z,11.70
2022-09-28T08:41:58.839Z,6.70
2022-09-28T08:44:33.570Z,3.93
2022-09-28T08:47:07.366Z,3.73
2022-09-28T08:49:42.197Z,6.63
2022-09-28T08:52:16.595Z,5.47
2022-09-28T08:54:50.742Z,3.47
2022-09-28T08:57:24.434Z,8.60
2022-09-28T08:59:56.958Z,4.10
2022-09-28T09:02:31.991Z,6.87
2022-09-28T09:05:04.729Z,6.80
2022-09-28T09:07:55.682Z,5.50
2022-09-28T09:10:52.984Z,4.10
2022-09-28T09:13:37.434Z,4.47
2022-09-28T09:16:12.586Z,7.20
2022-09-28T09:18:46.932Z,3.83
2022-09-28T09:21:20.575Z,8.57
2022-09-28T09:23:56.167Z,2.50
2022-09-28T09:29:17.328Z,5.23
2022-09-28T09:31:57.862Z,3.70
2022-09-28T09:34:51.370Z,7.30
2022-09-28T09:37:36.625Z,7.17
2022-09-28T09:40:26.491Z,4.70
2022-09-28T09:43:06.439Z,6.40
2022-09-28T09:45:49.298Z,6.03
2022-09-28T09:48:23.896Z,9.87
2022-09-28T09:50:58.042Z,5.13
2022-09-28T09:53:36.197Z,5.23
2022-09-28T09:56:07.960Z,5.27
2022-09-28T09:58:40.992Z,8.13
2022-09-28T10:03:53.483Z,7.23
2022-09-28T10:06:27.788Z,7.50
2022-09-28T10:09:03.341Z,6.27
2022-09-28T10:11:37.278Z,18.50
2022-09-28T10:14:08.349Z,5.73
2022-09-28T10:16:39.006Z,6.13
2022-09-28T10:19:13.546Z,4.37
2022-09-28T10:21:47.058Z,4.70
2022-09-28T10:24:22.313Z,9.63
2022-09-28T10:26:55.985Z,6.77
2022-09-28T10:29:28.179Z,6.37
2022-09-28T10:31:59.036Z,4.17
2022-09-28T10:34:31.879Z,6.90
2022-09-28T10:37:05.580Z,3.87
2022-09-28T10:39:38.599Z,4.90
2022-09-28T10:42:13.227Z,11.03
2022-09-28T10:47:32.833Z,5.23
2022-09-28T10:50:05.497Z,6.13
2022-09-28T10:52:42.277Z,3.13
2022-09-28T10:55:30.581Z,6.10
2022-09-28T10:58:01.614Z,6.00
2022-09-28T11:00:41.210Z,3.70
2022-09-28T11:03:22.298Z,7.73
2022-09-28T11:06:01.447Z,4.87
2022-09-28T11:08:35.770Z,3.37
2022-09-28T11:11:12.440Z,4.33
2022-09-28T11:13:46.023Z,2.87
2022-09-28T11:16:26.392Z,3.40
2022-09-28T11:18:57.630Z,2.57
2022-09-28T11:21:32.401Z,2.63
2022-09-28T11:24:07.580Z,3.47
2022-09-28T11:26:44.083Z,1.37
2022-09-28T11:29:27.842Z,1.10
2022-09-28T11:32:04.355Z,1.80
2022-09-28T11:34:57.905Z,2.73
2022-09-28T11:37:36.617Z,2.97
2022-09-28T11:40:15.310Z,3.23
2022-09-28T11:42:50.009Z,1.77
2022-09-28T11:45:36.570Z,1.93
2022-09-28T11:48:09.903Z,4.27
2022-09-28T11:50:49.231Z,3.13
2022-09-28T11:53:29.156Z,2.10
2022-09-28T11:56:08.718Z,3.80
2022-09-28T11:58:40.480Z,5.40
2022-09-28T12:01:18.869Z,1.83
2022-09-28T12:03:51.882Z,3.10
2022-09-28T12:06:26.012Z,2.57
2022-09-28T12:09:17.058Z,1.67
2022-09-28T12:11:50.740Z,2.30
2022-09-28T12:14:25.298Z,2.33
2022-09-28T12:17:08.307Z,2.50
2022-09-28T12:19:36.317Z,1.30
2022-09-28T12:22:11.732Z,2.40
2022-09-28T12:24:45.941Z,2.00
2022-09-28T12:27:19.765Z,1.10
2022-09-28T12:29:54.200Z,0.73
2022-09-28T12:32:29.595Z,0.97
2022-09-28T12:35:00.383Z,1.50
2022-09-28T12:37:40.223Z,2.00
2022-09-28T12:40:38.265Z,0.83
2022-09-28T12:43:31.320Z,1.07
2022-09-28T12:46:20.058Z,0.57
2022-09-28T12:51:54.605Z,2.00
2022-09-28T12:54:53.402Z,3.73
2022-09-28T12:57:49.140Z,2.43
2022-09-28T13:00:23.073Z,0.90
2022-09-28T13:03:29.629Z,2.13
2022-09-28T13:06:40.770Z,0.57
2022-09-28T13:09:31.561Z,1.70
2022-09-28T13:12:23.608Z,1.00
2022-09-28T13:15:18.496Z,0.27
2022-09-28T13:17:55.041Z,0.97
2022-09-28T13:20:45.432Z,0.60
2022-09-28T13:23:20.945Z,3.23
2022-09-28T13:25:56.513Z,0.60
2022-09-28T13:28:28.852Z,0.50
2022-09-28T13:31:02.462Z,0.80
2022-09-28T13:33:37.080Z,0.73
2022-09-28T13:36:30.478Z,2.23
2022-09-28T13:39:02.287Z,0.80
2022-09-28T13:41:35.602Z,0.47
2022-09-28T13:44:36.712Z,0.40
2022-09-28T13:47:30.367Z,4.00
2022-09-28T13:50:07.390Z,0.40
2022-09-28T13:52:44.481Z,1.23
2022-09-28T13:55:37.487Z,1.00
2022-09-28T13:58:15.937Z,0.87
2022-09-28T14:03:34.102Z,1.23
2022-09-28T14:06:23.888Z,1.87
2022-09-28T14:12:06.515Z,0.37
2022-09-28T14:14:53.456Z,0.40
2022-09-28T14:18:03.289Z,0.83
2022-09-28T14:20:36.179Z,0.43
2022-09-28T14:26:58.893Z,2.07
2022-09-28T14:29:31.612Z,3.37
2022-09-28T14:32:07.596Z,0.27
2022-09-28T14:34:41.315Z,0.53
2022-09-28T14:37:41.317Z,1.17
2022-09-28T14:40:39.988Z,0.57
2022-09-28T14:43:26.099Z,0.77
2022-09-28T14:46:35.748Z,4.10
2022-09-28T14:49:11.030Z,3.70
2022-09-28T14:52:06.528Z,3.97
2022-09-28T14:54:55.174Z,1.93
2022-09-28T14:57:29.560Z,1.03
2022-09-28T15:00:02.099Z,0.63
2022-09-28T15:02:38.171Z,0.33
2022-09-28T15:05:29.561Z,0.73
2022-09-28T15:08:01.997Z,0.77
2022-09-28T15:10:35.613Z,3.63
2022-09-28T15:13:09.579Z,1.17
2022-09-28T15:15:42.556Z,0.73
2022-09-28T15:18:34.811Z,2.07
2022-09-28T15:21:05.838Z,0.80
2022-09-28T15:23:41.315Z,2.07
2022-09-28T15:26:24.251Z,4.30
2022-09-28T15:28:55.689Z,2.83
2022-09-28T15:31:28.636Z,1.50
2022-09-28T15:34:16.912Z,3.97
2022-09-28T15:37:07.768Z,1.03
2022-09-28T15:39:39.360Z,1.87
2022-09-28T15:42:10.053Z,1.07
2022-09-28T15:44:43.216Z,4.40
2022-09-28T15:47:16.938Z,1.40
2022-09-28T15:49:50.896Z,0.83
2022-09-28T15:52:34.157Z,0.30
2022-09-28T15:55:09.399Z,0.67
2022-09-28T15:57:41.690Z,1.50
2022-09-28T16:00:28.320Z,0.40
2022-09-28T16:03:05.704Z,2.33
2022-09-28T16:05:42.181Z,1.80
2022-09-28T16:08:21.022Z,1.40
2022-09-28T16:11:01.710Z,1.90
2022-09-28T16:13:34.511Z,0.40
2022-09-28T16:16:05.163Z,2.17
2022-09-28T16:18:37.042Z,6.93
2022-09-28T16:21:28.867Z,1.97
2022-09-28T16:23:59.854Z,1.70
2022-09-28T16:26:33.598Z,3.53
2022-09-28T16:29:09.694Z,1.33
2022-09-28T16:31:41.877Z,0.50
2022-09-28T16:34:20.808Z,2.83
2022-09-28T16:36:52.622Z,2.57
2022-09-28T16:39:23.413Z,2.57
2022-09-28T16:41:57.154Z,1.03
2022-09-28T16:44:30.801Z,0.53
2022-09-28T16:47:03.882Z,2.97
2022-09-28T16:49:34.748Z,2.27
2022-09-28T16:52:05.567Z,2.50
2022-09-28T16:54:53.662Z,3.33
2022-09-28T16:57:24.584Z,1.17
2022-09-28T16:59:55.279Z,1.60
2022-09-28T17:02:45.634Z,0.40
2022-09-28T17:04:59.628Z,1.30
2022-09-28T17:07:30.358Z,0.83
2022-09-28T17:10:00.981Z,3.17
2022-09-28T17:12:31.642Z,0.93
2022-09-28T17:15:02.369Z,0.97
2022-09-28T17:17:32.995Z,4.63
2022-09-28T17:20:05.754Z,4.83
2022-09-28T17:22:36.473Z,4.27
2022-09-28T17:25:10.147Z,1.60
2022-09-28T17:27:42.127Z,1.70
2022-09-28T17:30:15.662Z,1.07
2022-09-28T17:32:47.490Z,1.83
2022-09-28T17:35:24.616Z,3.10
2022-09-28T17:37:52.280Z,7.33
2022-09-28T17:40:27.741Z,1.20
2022-09-28T17:42:59.929Z,2.33
2022-09-28T17:45:31.457Z,2.47
2022-09-28T17:48:02.789Z,7.40
2022-09-28T17:50:35.405Z,2.23
2022-09-28T17:53:06.967Z,4.70
2022-09-28T17:55:39.292Z,7.10
2022-09-28T17:58:17.816Z,2.50
2022-09-28T18:00:51.914Z,3.93
2022-09-28T18:03:24.114Z,5.23
2022-09-28T18:06:00.882Z,2.43
2022-09-28T18:08:31.647Z,1.23
2022-09-28T18:11:02.965Z,2.90
2022-09-28T18:13:33.807Z,1.20
2022-09-28T18:18:43.000Z,4.87
2022-09-28T18:21:13.548Z,2.00
2022-09-28T18:23:44.148Z,0.73
2022-09-28T18:26:15.913Z,3.90
2022-09-28T18:28:47.082Z,5.47
2022-09-28T18:31:19.239Z,0.97
2022-09-28T18:33:49.949Z,1.53
2022-09-28T18:36:20.596Z,2.77
2022-09-28T18:38:51.185Z,5.40
2022-09-28T18:41:21.952Z,1.70
2022-09-28T18:43:53.310Z,1.20
2022-09-28T18:46:25.705Z,1.70
2022-09-28T18:51:35.055Z,3.97
2022-09-28T18:54:07.719Z,2.77
2022-09-28T18:56:38.366Z,0.70
2022-09-28T18:59:12.286Z,1.17
2022-09-28T19:01:43.382Z,0.40
2022-09-28T19:04:14.673Z,1.90
2022-09-28T19:06:47.291Z,6.67
2022-09-28T19:09:21.145Z,1.10
2022-09-28T19:11:52.798Z,2.80
2022-09-28T19:14:24.022Z,1.60
2022-09-28T19:16:54.817Z,3.90
2022-09-28T19:19:25.830Z,3.83
2022-09-28T19:21:56.755Z,4.40
2022-09-28T19:24:28.082Z,4.20
2022-09-28T19:26:58.919Z,2.50
2022-09-28T19:29:29.816Z,5.60
2022-09-28T19:32:00.938Z,5.27
2022-09-28T19:34:32.865Z,4.77
2022-09-28T19:37:04.533Z,3.40
2022-09-28T19:39:36.183Z,3.93
2022-09-28T19:42:07.648Z,3.90
2022-09-28T19:44:39.301Z,2.10
2022-09-28T19:47:13.015Z,3.43
2022-09-28T19:49:44.179Z,3.20
2022-09-28T19:52:19.195Z,1.40
2022-09-28T19:54:54.789Z,0.77
2022-09-28T19:57:28.363Z,1.90
2022-09-28T20:00:03.586Z,1.57
2022-09-28T20:02:33.957Z,1.20
2022-09-28T20:05:05.005Z,2.40
2022-09-28T20:07:36.328Z,3.50
2022-09-28T20:10:08.883Z,4.20
2022-09-28T20:12:41.459Z,2.60
2022-09-28T20:15:14.019Z,3.33
2022-09-28T20:17:44.853Z,3.97
2022-09-28T20:20:15.713Z,3.13
2022-09-28T20:22:46.528Z,2.90
2022-09-28T20:25:17.353Z,1.50
2022-09-28T20:27:49.719Z,4.20
2022-09-28T20:30:20.930Z,5.30
2022-09-28T20:32:51.773Z,2.37
2022-09-28T20:35:32.652Z,4.93
2022-09-28T20:37:57.654Z,3.53
2022-09-28T20:40:28.301Z,3.50
2022-09-28T20:45:38.836Z,4.30
2022-09-28T20:48:09.522Z,3.40
2022-09-28T20:50:40.827Z,1.93
2022-09-28T20:53:11.903Z,1.63
2022-09-28T20:55:42.487Z,2.00
2022-09-28T20:58:13.028Z,3.57
2022-09-28T21:00:43.764Z,3.97
2022-09-28T21:05:55.077Z,3.53
2022-09-28T21:08:26.085Z,3.43
2022-09-28T21:10:56.690Z,3.20
2022-09-28T21:13:28.451Z,21.27
2022-09-28T21:16:03.528Z,1.90
2022-09-28T21:18:34.092Z,1.80
2022-09-28T21:21:06.314Z,5.30
2022-09-28T21:23:37.525Z,4.17
2022-09-28T21:26:09.782Z,3.40
2022-09-28T21:28:41.135Z,3.90
2022-09-28T21:31:13.338Z,2.33
2022-09-28T21:33:43.936Z,6.00
2022-09-28T21:36:14.813Z,5.10
2022-09-28T21:38:45.673Z,9.03
2022-09-28T21:41:16.599Z,189.37
2022-09-28T21:43:48.470Z,389.40
2022-09-28T21:46:19.358Z,521.47
2022-09-28T21:48:53.541Z,737.23
2022-09-28T21:51:24.763Z,225.30
2022-09-28T21:53:55.401Z,208.10
2022-09-28T21:56:26.892Z,317.27
2022-09-28T21:58:57.558Z,51.60
2022-09-28T22:01:29.455Z,14.30
2022-09-28T22:04:00.357Z,43.77
2022-09-28T22:06:31.004Z,70.63
2022-09-28T22:09:01.529Z,10.90
2022-09-28T22:11:32.150Z,5.53
2022-09-28T22:14:02.846Z,6.17
2022-09-28T22:16:33.618Z,8.33
2022-09-28T22:19:04.164Z,4.47
2022-09-28T22:21:35.471Z,5.90
2022-09-28T22:24:08.055Z,4.30
2022-09-28T22:26:39.492Z,9.73
2022-09-28T22:29:11.247Z,4.97
2022-09-28T22:31:43.426Z,14.60
2022-09-28T22:34:13.959Z,3.57
2022-09-28T22:36:44.558Z,4.33
2022-09-28T22:39:15.505Z,3.50
2022-09-28T22:41:46.132Z,2.93
2022-09-28T22:44:16.740Z,2.10
2022-09-28T22:46:47.779Z,1.53
2022-09-28T22:49:18.668Z,1.33
2022-09-28T22:51:49.284Z,4.80
2022-09-28T22:54:19.943Z,3.53
2022-09-28T22:56:50.515Z,5.63
2022-09-28T22:59:21.133Z,528.07
2022-09-28T23:01:51.733Z,431.03
2022-09-28T23:04:22.338Z,694.87
2022-09-28T23:06:52.918Z,668.90
2022-09-28T23:09:23.594Z,441.93
2022-09-28T23:11:54.179Z,217.13
2022-09-28T23:14:24.700Z,239.77
2022-09-28T23:16:55.243Z,225.80
2022-09-28T23:19:25.872Z,164.90
2022-09-28T23:21:57.957Z,140.90
2022-09-28T23:24:28.568Z,7.83
2022-09-28T23:26:59.134Z,189.80
2022-09-28T23:29:29.763Z,30.97
2022-09-28T23:32:00.294Z,20.67
2022-09-28T23:34:30.890Z,3.97
2022-09-28T23:37:01.403Z,6.33
2022-09-28T23:39:32.101Z,14.50
2022-09-28T23:42:03.379Z,3.63
2022-09-28T23:44:33.920Z,3.00
2022-09-28T23:47:04.474Z,3.43
2022-09-28T23:49:35.204Z,2.17
2022-09-28T23:52:05.776Z,4.00
2022-09-28T23:54:36.314Z,3.93
2022-09-28T23:57:07.028Z,1.03
2022-09-28T23:59:37.573Z,1.17
